createdAt,value
2023-02-19T00:00:45.133Z,1.4
2023-02-19T00:01:53.517Z,1.4
2023-02-19T00:03:01.840Z,1.4
2023-02-19T00:04:10.402Z,1.6
2023-02-19T00:05:18.749Z,1.6
2023-02-19T00:06:27.123Z,1.6
2023-02-19T00:07:35.665Z,1.6
2023-02-19T00:08:44.026Z,1.6
2023-02-19T00:09:52.376Z,1.6
2023-02-19T00:11:00.915Z,1.6
2023-02-19T00:12:09.271Z,1.6
2023-02-19T00:13:17.615Z,1.6
2023-02-19T00:14:26.166Z,1.5
2023-02-19T00:15:34.558Z,1.5
2023-02-19T00:16:42.858Z,1.5
2023-02-19T00:17:51.409Z,1.5
2023-02-19T00:18:59.748Z,1.5
2023-02-19T00:20:08.109Z,1.5
2023-02-19T00:21:16.667Z,1.6
2023-02-19T00:22:25.071Z,1.6
2023-02-19T00:23:33.375Z,1.6
2023-02-19T00:24:41.911Z,1.6
2023-02-19T00:25:50.283Z,1.6
2023-02-19T00:26:58.626Z,1.6
2023-02-19T00:28:07.196Z,1.9
2023-02-19T00:29:15.533Z,1.9
2023-02-19T00:30:23.897Z,1.9
2023-02-19T00:31:33.281Z,2
2023-02-19T00:32:40.801Z,2
2023-02-19T00:33:49.139Z,2
2023-02-19T00:34:57.707Z,2.1
2023-02-19T00:36:06.049Z,2.1
2023-02-19T00:37:14.413Z,2.1
2023-02-19T00:38:22.999Z,1.8
2023-02-19T00:39:31.311Z,1.8
2023-02-19T00:40:39.660Z,1.8
2023-02-19T00:41:48.233Z,1.7
2023-02-19T00:42:56.575Z,1.7
2023-02-19T00:44:04.919Z,1.7
2023-02-19T00:45:13.458Z,2.4
2023-02-19T00:46:21.879Z,2.4
2023-02-19T00:47:30.209Z,2.4
2023-02-19T00:48:38.790Z,2.4
2023-02-19T00:49:47.162Z,2.4
2023-02-19T00:50:55.505Z,2.4
2023-02-19T00:52:04.076Z,2.2
2023-02-19T00:53:12.434Z,2.2
2023-02-19T00:54:20.900Z,2.2
2023-02-19T00:55:29.326Z,2.2
2023-02-19T00:56:37.668Z,2.2
2023-02-19T00:57:46.014Z,2.2
2023-02-19T00:58:54.565Z,2.4
2023-02-19T01:00:02.897Z,2.4
2023-02-19T01:01:11.620Z,2.4
2023-02-19T01:02:19.806Z,2.3
2023-02-19T01:03:28.162Z,2.3
2023-02-19T01:04:36.537Z,2.3
2023-02-19T01:05:45.062Z,2.6
2023-02-19T01:06:53.422Z,2.6
2023-02-19T01:08:01.771Z,2.6
2023-02-19T01:09:10.323Z,3.6
2023-02-19T01:10:18.703Z,3.6
2023-02-19T01:11:27.040Z,3.6
2023-02-19T01:12:35.592Z,4.1
2023-02-19T01:13:43.938Z,4.1
2023-02-19T01:14:52.280Z,4.1
2023-02-19T01:16:00.887Z,4.1
2023-02-19T01:17:09.215Z,4.1
2023-02-19T01:18:17.558Z,4.1
2023-02-19T01:19:26.106Z,4.1
2023-02-19T01:20:34.458Z,4.1
2023-02-19T01:21:42.793Z,4.1
2023-02-19T01:22:51.370Z,4.1
2023-02-19T01:23:59.778Z,4.1
2023-02-19T01:25:08.072Z,4.1
2023-02-19T01:26:16.655Z,4.3
2023-02-19T01:27:24.986Z,4.3
2023-02-19T01:28:33.328Z,4.3
2023-02-19T01:29:41.880Z,4.4
2023-02-19T01:30:50.236Z,4.4
2023-02-19T01:31:58.698Z,4.4
2023-02-19T01:33:07.127Z,4.2
2023-02-19T01:34:15.471Z,4.2
2023-02-19T01:35:23.824Z,4.2
2023-02-19T01:36:32.360Z,4.2
2023-02-19T01:37:40.732Z,4.2
2023-02-19T01:38:49.088Z,4.2
2023-02-19T01:39:57.655Z,3.8
2023-02-19T01:41:05.988Z,3.8
2023-02-19T01:42:14.389Z,3.8
2023-02-19T01:43:22.936Z,3.4
2023-02-19T01:44:31.288Z,3.4
2023-02-19T01:45:39.647Z,3.4
2023-02-19T01:46:48.251Z,3.2
2023-02-19T01:47:56.558Z,3.2
2023-02-19T01:49:04.907Z,3.2
2023-02-19T01:50:13.454Z,3
2023-02-19T01:51:21.798Z,3
2023-02-19T01:52:30.140Z,3
2023-02-19T01:53:38.698Z,3
2023-02-19T01:54:47.043Z,3
2023-02-19T01:55:55.384Z,3
2023-02-19T01:57:03.948Z,2.6
2023-02-19T01:58:12.331Z,2.6
2023-02-19T01:59:20.660Z,2.6
2023-02-19T02:00:29.225Z,3.2
2023-02-19T02:01:37.574Z,3.2
2023-02-19T02:02:45.906Z,3.2
2023-02-19T02:03:54.456Z,3.5
2023-02-19T02:05:02.807Z,3.5
2023-02-19T02:06:11.149Z,3.5
2023-02-19T02:07:19.724Z,3.5
2023-02-19T02:08:28.098Z,3.5
2023-02-19T02:09:36.430Z,3.5
2023-02-19T02:10:44.992Z,4.1
2023-02-19T02:11:53.358Z,4.1
2023-02-19T02:13:01.712Z,4.1
2023-02-19T02:14:10.277Z,4.6
2023-02-19T02:15:18.605Z,4.6
2023-02-19T02:16:27.007Z,4.6
2023-02-19T02:17:35.508Z,5.4
2023-02-19T02:18:43.880Z,5.4
2023-02-19T02:19:52.236Z,5.4
2023-02-19T02:21:00.786Z,5.5
2023-02-19T02:22:09.138Z,5.5
2023-02-19T02:23:17.497Z,5.5
2023-02-19T02:24:26.063Z,5.5
2023-02-19T02:25:34.396Z,5.5
2023-02-19T02:26:42.733Z,5.5
2023-02-19T02:27:51.338Z,5.8
2023-02-19T02:28:59.666Z,5.8
2023-02-19T02:30:08.063Z,5.8
2023-02-19T02:31:16.661Z,5.8
2023-02-19T02:32:24.903Z,5.8
2023-02-19T02:33:33.258Z,5.8
2023-02-19T02:34:41.810Z,5.4
2023-02-19T02:35:50.160Z,5.4
2023-02-19T02:36:58.512Z,5.4
2023-02-19T02:38:07.068Z,5.7
2023-02-19T02:39:15.405Z,5.7
2023-02-19T02:40:23.744Z,5.7
2023-02-19T02:41:32.352Z,6.6
2023-02-19T02:42:40.680Z,6.6
2023-02-19T02:43:49.023Z,6.6
2023-02-19T02:44:57.575Z,6.8
2023-02-19T02:46:06.051Z,6.8
2023-02-19T02:47:14.267Z,6.8
2023-02-19T02:48:22.857Z,7.1
2023-02-19T02:49:31.196Z,7.1
2023-02-19T02:50:39.538Z,7.1
2023-02-19T02:51:48.095Z,8.1
2023-02-19T02:52:56.435Z,8.1
2023-02-19T02:54:04.791Z,8.1
2023-02-19T02:55:13.348Z,8.2
2023-02-19T02:56:21.730Z,8.2
2023-02-19T02:57:30.040Z,8.2
2023-02-19T02:58:38.610Z,8
2023-02-19T02:59:46.951Z,8
2023-02-19T03:00:55.340Z,8
2023-02-19T03:02:03.889Z,7.3
2023-02-19T03:03:13.110Z,7.3
2023-02-19T03:04:21.482Z,7.3
2023-02-19T03:05:30.034Z,7.8
2023-02-19T03:06:38.386Z,7.8
2023-02-19T03:07:46.725Z,7.8
2023-02-19T03:08:55.288Z,6.9
2023-02-19T03:10:03.624Z,6.9
2023-02-19T03:11:12.074Z,6.9
2023-02-19T03:12:20.598Z,6.8
2023-02-19T03:13:28.860Z,6.8
2023-02-19T03:14:37.208Z,6.8
2023-02-19T03:15:45.777Z,5.8
2023-02-19T03:16:54.104Z,5.8
2023-02-19T03:18:02.448Z,5.8
2023-02-19T03:19:11.029Z,5.7
2023-02-19T03:20:19.406Z,5.7
2023-02-19T03:21:27.735Z,5.7
2023-02-19T03:22:36.292Z,5.9
2023-02-19T03:23:44.647Z,5.9
2023-02-19T03:24:53.018Z,5.9
2023-02-19T03:26:01.586Z,6.1
2023-02-19T03:27:09.914Z,6.1
2023-02-19T03:28:18.277Z,6.1
2023-02-19T03:29:26.877Z,6.3
2023-02-19T03:30:35.356Z,6.3
2023-02-19T03:31:43.654Z,6.3
2023-02-19T03:32:52.109Z,6.4
2023-02-19T03:34:00.470Z,6.4
2023-02-19T03:35:08.797Z,6.4
2023-02-19T03:36:17.347Z,5.9
2023-02-19T03:37:25.680Z,5.9
2023-02-19T03:38:34.039Z,5.9
2023-02-19T03:39:42.619Z,5.3
2023-02-19T03:40:50.974Z,5.3
2023-02-19T03:41:59.325Z,5.3
2023-02-19T03:43:07.867Z,5.9
2023-02-19T03:44:16.213Z,5.9
2023-02-19T03:45:24.566Z,5.9
2023-02-19T03:46:33.118Z,5.5
2023-02-19T03:47:41.473Z,5.5
2023-02-19T03:48:49.816Z,5.5
2023-02-19T03:49:58.408Z,6
2023-02-19T03:51:06.758Z,6
2023-02-19T03:52:15.103Z,6
2023-02-19T03:53:23.654Z,6.1
2023-02-19T03:54:32.003Z,6.1
2023-02-19T03:55:40.349Z,6.1
2023-02-19T03:56:48.895Z,6.3
2023-02-19T03:57:57.235Z,6.3
2023-02-19T03:59:05.574Z,6.3
2023-02-19T04:00:14.154Z,6.3
2023-02-19T04:01:22.518Z,6.3
2023-02-19T04:02:30.880Z,6.3
2023-02-19T04:03:39.448Z,6.2
2023-02-19T04:04:47.789Z,6.2
2023-02-19T04:05:56.132Z,6.2
2023-02-19T04:07:04.674Z,6.4
2023-02-19T04:08:13.050Z,6.4
2023-02-19T04:09:21.374Z,6.4
2023-02-19T04:10:30.617Z,5.5
2023-02-19T04:11:38.976Z,5.5
2023-02-19T04:12:47.348Z,5.5
2023-02-19T04:13:55.882Z,5.3
2023-02-19T04:15:04.274Z,5.3
2023-02-19T04:16:12.626Z,5.3
2023-02-19T04:17:21.159Z,4.8
2023-02-19T04:18:29.511Z,4.8
2023-02-19T04:19:37.871Z,4.8
2023-02-19T04:20:46.427Z,4.4
2023-02-19T04:21:54.762Z,4.4
2023-02-19T04:23:03.143Z,4.4
2023-02-19T04:24:11.692Z,4.4
2023-02-19T04:25:20.050Z,4.4
2023-02-19T04:26:28.388Z,4.4
2023-02-19T04:27:36.948Z,4
2023-02-19T04:28:45.288Z,4
2023-02-19T04:29:53.656Z,4
2023-02-19T04:31:02.318Z,4
2023-02-19T04:32:10.549Z,4
2023-02-19T04:33:18.895Z,4
2023-02-19T04:34:27.458Z,4.2
2023-02-19T04:35:35.798Z,4.2
2023-02-19T04:36:44.203Z,4.2
2023-02-19T04:37:52.741Z,3.6
2023-02-19T04:39:01.080Z,3.6
2023-02-19T04:40:09.461Z,3.6
2023-02-19T04:41:18.005Z,3.4
2023-02-19T04:42:26.389Z,3.4
2023-02-19T04:43:34.782Z,3.4
2023-02-19T04:44:43.339Z,3.6
2023-02-19T04:45:51.753Z,3.6
2023-02-19T04:47:00.047Z,3.6
2023-02-19T04:48:08.604Z,3
2023-02-19T04:49:16.949Z,3
2023-02-19T04:50:25.296Z,3
2023-02-19T04:51:33.855Z,3.1
2023-02-19T04:52:42.189Z,3.1
2023-02-19T04:53:50.532Z,3.1
2023-02-19T04:54:59.086Z,3.5
2023-02-19T04:56:07.427Z,3.5
2023-02-19T04:57:15.764Z,3.5
2023-02-19T04:58:24.323Z,3.1
2023-02-19T04:59:32.659Z,3.1
2023-02-19T05:00:41.004Z,3.1
2023-02-19T05:01:49.566Z,3.3
2023-02-19T05:02:57.902Z,3.3
2023-02-19T05:04:06.267Z,3.3
2023-02-19T05:05:14.846Z,3
2023-02-19T05:06:23.205Z,3
2023-02-19T05:07:31.551Z,3
2023-02-19T05:08:40.102Z,3.2
2023-02-19T05:09:48.457Z,3.2
2023-02-19T05:10:56.814Z,3.2
2023-02-19T05:12:05.370Z,2.8
2023-02-19T05:13:13.709Z,2.8
2023-02-19T05:14:22.061Z,2.8
2023-02-19T05:15:30.664Z,3.4
2023-02-19T05:16:38.961Z,3.4
2023-02-19T05:17:47.306Z,3.4
2023-02-19T05:18:55.855Z,3.3
2023-02-19T05:20:04.197Z,3.3
2023-02-19T05:21:12.963Z,3.3
2023-02-19T05:22:21.154Z,3.5
2023-02-19T05:23:29.547Z,3.5
2023-02-19T05:24:37.887Z,3.5
2023-02-19T05:25:46.462Z,3.1
2023-02-19T05:26:54.815Z,3.1
2023-02-19T05:28:03.165Z,3.1
2023-02-19T05:29:11.724Z,4
2023-02-19T05:30:20.096Z,4
2023-02-19T05:31:28.498Z,4
2023-02-19T05:32:36.951Z,3.6
2023-02-19T05:33:45.289Z,3.6
2023-02-19T05:34:53.640Z,3.6
2023-02-19T05:36:02.221Z,3.6
2023-02-19T05:37:10.562Z,3.6
2023-02-19T05:38:18.914Z,3.6
2023-02-19T05:39:27.464Z,3.5
2023-02-19T05:40:35.813Z,3.5
2023-02-19T05:41:44.156Z,3.5
2023-02-19T05:42:52.713Z,3.2
2023-02-19T05:44:01.064Z,3.2
2023-02-19T05:45:09.424Z,3.2
2023-02-19T05:46:18.098Z,3.1
2023-02-19T05:47:26.326Z,3.1
2023-02-19T05:48:34.668Z,3.1
2023-02-19T05:49:43.230Z,3
2023-02-19T05:50:51.597Z,3
2023-02-19T05:51:59.952Z,3
2023-02-19T05:53:08.498Z,2.6
2023-02-19T05:54:16.832Z,2.6
2023-02-19T05:55:25.174Z,2.6
2023-02-19T05:56:33.738Z,3.1
2023-02-19T05:57:43.601Z,3.1
2023-02-19T05:58:50.433Z,3.1
2023-02-19T05:59:59.004Z,3.1
2023-02-19T06:01:07.389Z,3.1
2023-02-19T06:02:15.703Z,3.1
2023-02-19T06:03:24.334Z,3.5
2023-02-19T06:04:32.633Z,3.5
2023-02-19T06:05:40.975Z,3.5
2023-02-19T06:06:49.542Z,3.3
2023-02-19T06:07:57.877Z,3.3
2023-02-19T06:09:06.242Z,3.3
2023-02-19T06:10:14.797Z,3.2
2023-02-19T06:11:23.150Z,3.2
2023-02-19T06:12:31.510Z,3.2
2023-02-19T06:13:40.063Z,3.6
2023-02-19T06:14:48.454Z,3.6
2023-02-19T06:15:56.864Z,3.6
2023-02-19T06:17:05.392Z,3.5
2023-02-19T06:18:13.722Z,3.5
2023-02-19T06:19:22.079Z,3.5
2023-02-19T06:20:30.628Z,3.5
2023-02-19T06:21:39.020Z,3.5
2023-02-19T06:22:47.378Z,3.5
2023-02-19T06:23:55.958Z,3.4
2023-02-19T06:25:04.317Z,3.4
2023-02-19T06:26:12.670Z,3.4
2023-02-19T06:27:21.244Z,2.9
2023-02-19T06:28:29.627Z,2.9
2023-02-19T06:29:38.005Z,2.9
2023-02-19T06:30:46.542Z,3.2
2023-02-19T06:31:55.112Z,3.2
2023-02-19T06:33:03.358Z,3.2
2023-02-19T06:34:11.913Z,3.2
2023-02-19T06:35:20.274Z,3.2
2023-02-19T06:36:28.624Z,3.2
2023-02-19T06:37:37.169Z,2.9
2023-02-19T06:38:45.551Z,2.9
2023-02-19T06:39:53.901Z,2.9
2023-02-19T06:41:02.499Z,2.7
2023-02-19T06:42:10.873Z,2.7
2023-02-19T06:43:19.210Z,2.7
2023-02-19T06:44:27.778Z,3.1
2023-02-19T06:45:36.140Z,3.1
2023-02-19T06:46:44.511Z,3.1
2023-02-19T06:47:53.055Z,25.200001
2023-02-19T06:49:01.427Z,25.200001
2023-02-19T06:50:09.834Z,25.200001
2023-02-19T06:51:18.487Z,3.3
2023-02-19T06:52:26.700Z,3.3
2023-02-19T06:53:35.038Z,3.3
2023-02-19T06:54:43.543Z,3
2023-02-19T06:55:51.901Z,3
2023-02-19T06:57:00.198Z,3
2023-02-19T06:58:08.803Z,3.5
2023-02-19T06:59:17.157Z,3.5
2023-02-19T07:00:25.526Z,3.5
2023-02-19T07:01:34.095Z,2.4
2023-02-19T07:02:42.500Z,2.4
2023-02-19T07:03:50.990Z,2.4
2023-02-19T07:04:59.474Z,3.1
2023-02-19T07:06:07.835Z,3.1
2023-02-19T07:07:16.182Z,3.1
2023-02-19T07:08:24.724Z,2.8
2023-02-19T07:09:33.079Z,2.8
2023-02-19T07:10:41.464Z,2.8
2023-02-19T07:11:50.029Z,2.7
2023-02-19T07:12:58.408Z,2.7
2023-02-19T07:14:06.742Z,2.7
2023-02-19T07:15:15.508Z,2.3
2023-02-19T07:16:24.014Z,2.3
2023-02-19T07:17:32.285Z,2.3
2023-02-19T07:18:40.849Z,1.6
2023-02-19T07:19:49.272Z,1.6
2023-02-19T07:20:57.894Z,1.6
2023-02-19T07:22:06.441Z,1.4
2023-02-19T07:23:14.751Z,1.4
2023-02-19T07:24:23.112Z,1.4
2023-02-19T07:25:31.732Z,2.5
2023-02-19T07:26:40.032Z,2.5
2023-02-19T07:27:48.606Z,2.5
2023-02-19T07:28:57.181Z,1.4
2023-02-19T07:30:05.913Z,1.4
2023-02-19T07:31:14.574Z,1.4
2023-02-19T07:32:23.043Z,2
2023-02-19T07:33:31.468Z,2
2023-02-19T07:34:39.837Z,2
2023-02-19T07:35:48.387Z,1.8
2023-02-19T07:36:56.760Z,1.8
2023-02-19T07:38:05.327Z,1.8
2023-02-19T07:39:13.939Z,1.4
2023-02-19T07:40:22.397Z,1.4
2023-02-19T07:41:30.790Z,1.4
2023-02-19T07:42:39.507Z,1.2
2023-02-19T07:43:47.911Z,1.2
2023-02-19T07:44:56.271Z,1.2
2023-02-19T07:46:04.877Z,1.2
2023-02-19T07:47:13.176Z,1.2
2023-02-19T07:48:21.560Z,1.2
2023-02-19T07:49:30.060Z,0.8
2023-02-19T07:50:38.431Z,0.8
2023-02-19T07:51:46.784Z,0.8
2023-02-19T07:52:57.205Z,0.7
2023-02-19T07:54:09.064Z,0.7
2023-02-19T07:55:17.287Z,0.7
2023-02-19T07:56:25.846Z,0.7
2023-02-19T07:57:35.776Z,0.7
2023-02-19T07:58:50.014Z,0.7
2023-02-19T08:00:23.755Z,0.6
2023-02-19T08:02:02.378Z,0.6
2023-02-19T08:03:10.329Z,0.6
2023-02-19T08:04:19.011Z,0.6
2023-02-19T08:05:52.741Z,0.6
2023-02-19T08:07:03.613Z,0.6
2023-02-19T08:08:25.174Z,1.2
2023-02-19T08:09:33.541Z,1.2
2023-02-19T08:10:41.884Z,1.2
2023-02-19T08:11:50.437Z,1.6
2023-02-19T08:12:58.813Z,1.6
2023-02-19T08:14:07.140Z,1.6
2023-02-19T08:15:15.698Z,1.1
2023-02-19T08:16:33.428Z,1.1
2023-02-19T08:17:41.427Z,1.1
2023-02-19T08:18:49.518Z,1.5
2023-02-19T08:19:57.845Z,1.5
2023-02-19T08:21:06.235Z,1.5
2023-02-19T08:22:14.793Z,0.9
2023-02-19T08:23:23.188Z,0.9
2023-02-19T08:24:31.565Z,0.9
2023-02-19T08:25:40.126Z,0.7
2023-02-19T08:26:48.488Z,0.7
2023-02-19T08:27:56.885Z,0.7
2023-02-19T08:29:07.372Z,0.9
2023-02-19T08:30:16.650Z,0.9
2023-02-19T08:33:45.121Z,1
2023-02-19T08:34:53.462Z,1
2023-02-19T08:36:01.799Z,1
2023-02-19T08:38:28.966Z,0.8
2023-02-19T08:39:37.612Z,0.8
2023-02-19T08:40:46.333Z,1.2
2023-02-19T08:41:54.688Z,1.2
2023-02-19T08:43:03.016Z,1.2
2023-02-19T08:44:11.555Z,1.3
2023-02-19T08:45:19.887Z,1.3
2023-02-19T08:46:28.226Z,1.3
2023-02-19T08:47:36.803Z,1.2
2023-02-19T08:48:45.148Z,1.2
2023-02-19T08:49:53.484Z,1.2
2023-02-19T08:51:02.033Z,0.7
2023-02-19T08:53:04.092Z,0.7
2023-02-19T08:54:12.446Z,0.7
2023-02-19T08:55:20.979Z,0.6
2023-02-19T08:56:29.416Z,0.6
2023-02-19T08:57:39.412Z,0.6
2023-02-19T08:58:47.978Z,1.9
2023-02-19T08:59:56.309Z,1.9
2023-02-19T09:01:04.690Z,1.9
2023-02-19T09:02:13.708Z,0.7
2023-02-19T09:03:22.088Z,0.7
2023-02-19T09:04:30.480Z,0.7
2023-02-19T09:05:39.029Z,0.8
2023-02-19T09:06:47.377Z,0.8
2023-02-19T09:07:55.725Z,0.8
2023-02-19T09:09:04.283Z,0.7
2023-02-19T09:10:12.612Z,0.7
2023-02-19T09:11:20.946Z,0.7
2023-02-19T09:12:29.508Z,0.5
2023-02-19T09:13:37.852Z,0.5
2023-02-19T09:14:46.198Z,0.5
2023-02-19T09:15:54.771Z,0.5
2023-02-19T09:17:03.076Z,0.5
2023-02-19T09:18:11.433Z,0.5
2023-02-19T09:19:19.985Z,0.4
2023-02-19T09:20:28.338Z,0.4
2023-02-19T09:21:36.694Z,0.4
2023-02-19T09:22:45.254Z,0.6
2023-02-19T09:23:53.587Z,0.6
2023-02-19T09:25:01.933Z,0.6
2023-02-19T09:26:10.497Z,0.6
2023-02-19T09:27:18.873Z,0.6
2023-02-19T09:28:27.220Z,0.6
2023-02-19T09:29:35.780Z,11.5
2023-02-19T09:30:44.181Z,11.5
2023-02-19T09:31:52.547Z,11.5
2023-02-19T09:33:01.071Z,22.200001
2023-02-19T09:34:09.414Z,22.200001
2023-02-19T09:35:17.742Z,22.200001
2023-02-19T09:36:26.354Z,33.299999
2023-02-19T09:37:34.701Z,33.299999
2023-02-19T09:38:43.054Z,33.299999
2023-02-19T09:39:51.609Z,2
2023-02-19T09:40:59.952Z,2
2023-02-19T09:42:08.307Z,2
2023-02-19T09:43:16.860Z,14.8
2023-02-19T09:44:25.187Z,14.8
2023-02-19T09:45:33.532Z,14.8
2023-02-19T09:46:42.127Z,2.3
2023-02-19T09:47:50.434Z,2.3
2023-02-19T09:48:58.812Z,2.3
2023-02-19T09:50:07.380Z,2.9
2023-02-19T09:51:15.714Z,2.9
2023-02-19T09:52:24.131Z,2.9
2023-02-19T09:53:32.698Z,1.4
2023-02-19T09:54:41.070Z,1.4
2023-02-19T09:55:49.411Z,1.4
2023-02-19T09:56:58.187Z,2.5
2023-02-19T09:58:06.642Z,2.5
2023-02-19T09:59:15.033Z,2.5
2023-02-19T10:00:23.667Z,7.4
2023-02-19T10:01:32.219Z,7.4
2023-02-19T10:02:40.604Z,7.4
2023-02-19T10:03:49.242Z,1.9
2023-02-19T10:04:57.683Z,1.9
2023-02-19T10:06:05.999Z,1.9
2023-02-19T10:07:14.561Z,0.7
2023-02-19T10:08:22.956Z,0.7
2023-02-19T10:09:31.310Z,0.7
2023-02-19T10:10:39.882Z,1.1
2023-02-19T10:11:48.821Z,1.1
2023-02-19T10:12:57.246Z,1.1
2023-02-19T10:14:05.832Z,0.7
2023-02-19T10:15:14.171Z,0.7
2023-02-19T10:16:22.689Z,0.7
2023-02-19T10:17:31.368Z,0.6
2023-02-19T10:18:39.725Z,0.6
2023-02-19T10:19:48.070Z,0.6
2023-02-19T10:20:56.612Z,2.1
2023-02-19T10:22:04.973Z,2.1
2023-02-19T10:23:13.324Z,2.1
2023-02-19T10:24:21.838Z,3.5
2023-02-19T10:25:30.265Z,3.5
2023-02-19T10:26:38.581Z,3.5
2023-02-19T10:27:47.161Z,2.2
2023-02-19T10:28:55.560Z,2.2
2023-02-19T10:30:03.879Z,2.2
2023-02-19T10:31:12.690Z,4
2023-02-19T10:32:20.739Z,4
2023-02-19T10:33:29.264Z,4
2023-02-19T10:34:37.784Z,1
2023-02-19T10:35:46.099Z,1
2023-02-19T10:36:54.443Z,1
2023-02-19T10:38:02.971Z,0.8
2023-02-19T10:39:11.319Z,0.8
2023-02-19T10:40:19.731Z,0.8
2023-02-19T10:41:28.257Z,1.8
2023-02-19T10:42:36.619Z,1.8
2023-02-19T10:43:44.959Z,1.8
2023-02-19T10:44:53.492Z,0.9
2023-02-19T10:46:01.851Z,0.9
2023-02-19T10:47:10.187Z,0.9
2023-02-19T10:48:18.735Z,0.8
2023-02-19T10:49:27.089Z,0.8
2023-02-19T10:50:35.433Z,0.8
2023-02-19T10:51:44.004Z,0.8
2023-02-19T10:52:52.305Z,0.8
2023-02-19T10:54:00.626Z,0.8
2023-02-19T10:55:09.148Z,0.9
2023-02-19T10:56:17.538Z,0.9
2023-02-19T10:57:26.016Z,0.9
2023-02-19T10:58:34.560Z,0.8
2023-02-19T10:59:42.919Z,0.8
2023-02-19T11:00:51.279Z,0.8
2023-02-19T11:01:59.889Z,0.7
2023-02-19T11:03:08.178Z,0.7
2023-02-19T11:04:16.659Z,0.7
2023-02-19T11:05:25.171Z,0.7
2023-02-19T11:06:35.051Z,0.7
2023-02-19T11:07:41.869Z,0.7
2023-02-19T11:08:50.440Z,0.6
2023-02-19T11:09:58.794Z,0.6
2023-02-19T11:11:07.110Z,0.6
2023-02-19T11:12:15.767Z,0.5
2023-02-19T11:13:24.124Z,0.5
2023-02-19T11:14:32.459Z,0.5
2023-02-19T11:15:41.007Z,0.8
2023-02-19T11:16:49.337Z,0.8
2023-02-19T11:17:57.677Z,0.8
2023-02-19T11:19:06.233Z,1.4
2023-02-19T11:20:14.551Z,1.4
2023-02-19T11:21:22.856Z,1.4
2023-02-19T11:22:31.396Z,1.3
2023-02-19T11:23:39.743Z,1.3
2023-02-19T11:24:48.065Z,1.3
2023-02-19T11:25:56.597Z,0.8
2023-02-19T11:27:04.943Z,0.8
2023-02-19T11:28:13.273Z,0.8
2023-02-19T11:29:21.795Z,3.2
2023-02-19T11:30:30.155Z,3.2
2023-02-19T11:31:38.489Z,3.2
2023-02-19T11:32:46.990Z,0.4
2023-02-19T11:33:55.328Z,0.4
2023-02-19T11:35:03.643Z,0.4
2023-02-19T11:36:12.189Z,0.5
2023-02-19T11:37:20.515Z,0.5
2023-02-19T11:38:28.847Z,0.5
2023-02-19T11:39:37.384Z,0.7
2023-02-19T11:40:45.736Z,0.7
2023-02-19T11:41:54.114Z,0.7
2023-02-19T11:43:02.625Z,0.9
2023-02-19T11:44:10.954Z,0.9
2023-02-19T11:45:19.277Z,0.9
2023-02-19T11:46:27.845Z,0.3
2023-02-19T11:47:36.144Z,0.3
2023-02-19T11:48:44.484Z,0.3
2023-02-19T11:49:53.013Z,0.5
2023-02-19T11:51:01.331Z,0.5
2023-02-19T11:52:09.659Z,0.5
2023-02-19T11:53:18.204Z,0.6
2023-02-19T11:54:26.510Z,0.6
2023-02-19T11:55:34.825Z,0.6
2023-02-19T11:56:43.359Z,0.5
2023-02-19T11:57:51.674Z,0.5
2023-02-19T11:59:00.699Z,0.5
2023-02-19T12:00:08.551Z,0.8
2023-02-19T12:01:16.954Z,0.8
2023-02-19T12:02:25.238Z,0.8
2023-02-19T12:03:33.774Z,0.7
2023-02-19T12:04:42.100Z,0.7
2023-02-19T12:05:50.425Z,0.7
2023-02-19T12:06:58.993Z,2.2
2023-02-19T12:08:07.331Z,2.2
2023-02-19T12:09:15.646Z,2.2
2023-02-19T12:10:24.177Z,0.7
2023-02-19T12:11:32.571Z,0.7
2023-02-19T12:12:40.892Z,0.7
2023-02-19T12:13:49.547Z,0.5
2023-02-19T12:14:58.144Z,0.5
2023-02-19T12:16:06.336Z,0.5
2023-02-19T12:17:14.846Z,0.4
2023-02-19T12:18:23.188Z,0.4
2023-02-19T12:19:31.503Z,0.4
2023-02-19T12:20:40.031Z,38.099998
2023-02-19T12:21:48.337Z,38.099998
2023-02-19T12:22:56.666Z,38.099998
2023-02-19T12:24:05.212Z,3.1
2023-02-19T12:25:13.526Z,3.1
2023-02-19T12:26:21.841Z,3.1
2023-02-19T12:27:30.379Z,1.4
2023-02-19T12:28:38.689Z,1.4
2023-02-19T12:29:47.029Z,1.4
2023-02-19T12:30:55.584Z,2.7
2023-02-19T12:32:03.897Z,2.7
2023-02-19T12:33:12.246Z,2.7
2023-02-19T12:34:20.774Z,2.1
2023-02-19T12:35:29.091Z,2.1
2023-02-19T12:36:37.405Z,2.1
2023-02-19T12:37:45.941Z,3
2023-02-19T12:38:54.269Z,3
2023-02-19T12:40:02.588Z,3
2023-02-19T12:41:11.111Z,2.4
2023-02-19T12:42:19.417Z,2.4
2023-02-19T12:43:27.736Z,2.4
2023-02-19T12:44:36.265Z,2.4
2023-02-19T12:45:44.643Z,2.4
2023-02-19T12:46:52.932Z,2.4
2023-02-19T12:48:01.418Z,2.2
2023-02-19T12:49:09.732Z,2.2
2023-02-19T12:50:18.064Z,2.2
2023-02-19T12:51:26.589Z,1.5
2023-02-19T12:52:34.908Z,1.5
2023-02-19T12:53:43.239Z,1.5
2023-02-19T12:54:52.215Z,1.2
2023-02-19T12:56:00.096Z,1.2
2023-02-19T12:57:08.412Z,1.2
2023-02-19T12:58:16.944Z,1.4
2023-02-19T12:59:25.269Z,1.4
2023-02-19T13:00:33.621Z,1.4
2023-02-19T13:01:42.139Z,0.9
2023-02-19T13:02:50.461Z,0.9
2023-02-19T13:03:58.777Z,0.9
2023-02-19T13:05:07.314Z,1
2023-02-19T13:06:15.901Z,1
2023-02-19T13:07:23.985Z,1
2023-02-19T13:08:33.979Z,1.8
2023-02-19T13:09:40.856Z,1.8
2023-02-19T13:10:49.169Z,1.8
2023-02-19T13:11:57.704Z,2.6
2023-02-19T13:13:06.009Z,2.6
2023-02-19T13:14:14.320Z,2.6
2023-02-19T13:15:22.866Z,1.9
2023-02-19T13:16:31.218Z,1.9
2023-02-19T13:17:39.474Z,1.9
2023-02-19T13:18:48.024Z,1.2
2023-02-19T13:19:56.403Z,1.2
2023-02-19T13:21:04.759Z,1.2
2023-02-19T13:22:13.297Z,3.3
2023-02-19T13:23:21.599Z,3.3
2023-02-19T13:24:29.908Z,3.3
2023-02-19T13:25:38.427Z,1.7
2023-02-19T13:26:46.762Z,1.7
2023-02-19T13:27:55.080Z,1.7
2023-02-19T13:29:03.615Z,5.4
2023-02-19T13:30:11.978Z,5.4
2023-02-19T13:31:20.325Z,5.4
2023-02-19T13:32:28.760Z,2.3
2023-02-19T13:33:37.078Z,2.3
2023-02-19T13:34:45.397Z,2.3
2023-02-19T13:35:53.916Z,1.5
2023-02-19T13:37:02.287Z,1.5
2023-02-19T13:38:10.609Z,1.5
2023-02-19T13:39:19.140Z,1.7
2023-02-19T13:40:27.482Z,1.7
2023-02-19T13:41:35.801Z,1.7
2023-02-19T13:42:44.342Z,4.5
2023-02-19T13:43:52.680Z,4.5
2023-02-19T13:45:01.010Z,4.5
2023-02-19T13:46:09.647Z,3.4
2023-02-19T13:47:17.873Z,3.4
2023-02-19T13:48:26.205Z,3.4
2023-02-19T13:49:34.732Z,4.1
2023-02-19T13:50:43.069Z,4.1
2023-02-19T13:51:51.394Z,4.1
2023-02-19T13:52:59.920Z,3.6
2023-02-19T13:54:08.241Z,3.6
2023-02-19T13:55:16.569Z,3.6
2023-02-19T13:56:25.083Z,5.9
2023-02-19T13:57:33.400Z,5.9
2023-02-19T13:58:41.813Z,5.9
2023-02-19T13:59:50.370Z,2.4
2023-02-19T14:00:58.711Z,2.4
2023-02-19T14:02:07.109Z,2.4
2023-02-19T14:03:15.626Z,1.5
2023-02-19T14:04:23.964Z,1.5
2023-02-19T14:05:32.306Z,1.5
2023-02-19T14:06:40.840Z,12.9
2023-02-19T14:07:49.161Z,12.9
2023-02-19T14:08:57.484Z,12.9
2023-02-19T14:10:05.997Z,2.9
2023-02-19T14:11:14.322Z,2.9
2023-02-19T14:12:22.656Z,2.9
2023-02-19T14:13:31.215Z,6.4
2023-02-19T14:14:39.551Z,6.4
2023-02-19T14:15:47.987Z,6.4
2023-02-19T14:16:56.494Z,6.5
2023-02-19T14:18:04.848Z,6.5
2023-02-19T14:19:13.250Z,6.5
2023-02-19T14:20:21.827Z,2.7
2023-02-19T14:21:30.708Z,2.7
2023-02-19T14:22:38.704Z,2.7
2023-02-19T14:23:47.274Z,2.3
2023-02-19T14:24:55.571Z,2.3
2023-02-19T14:26:03.961Z,2.3
2023-02-19T14:27:12.502Z,1.5
2023-02-19T14:28:20.825Z,1.5
2023-02-19T14:29:29.261Z,1.5
2023-02-19T14:30:37.992Z,2.8
2023-02-19T15:04:25.808Z,0
2023-02-19T15:05:34.120Z,0
2023-02-19T15:06:42.476Z,0
2023-02-19T15:07:51.025Z,3.1
2023-02-19T15:08:59.356Z,3.1
2023-02-19T15:10:07.728Z,3.1
2023-02-19T15:11:16.249Z,4.1
2023-02-19T15:12:24.552Z,4.1
2023-02-19T15:13:32.867Z,4.1
2023-02-19T15:14:41.414Z,3.2
2023-02-19T15:15:49.853Z,3.2
2023-02-19T15:16:58.059Z,3.2
2023-02-19T15:18:06.623Z,44.700001
2023-02-19T15:19:14.951Z,44.700001
2023-02-19T15:20:23.263Z,44.700001
2023-02-19T15:21:31.809Z,13.4
2023-02-19T15:22:40.134Z,13.4
2023-02-19T15:23:48.484Z,13.4
2023-02-19T15:24:57.012Z,8.2
2023-02-19T15:26:05.328Z,8.2
2023-02-19T15:27:13.657Z,8.2
2023-02-19T15:28:22.204Z,6
2023-02-19T15:29:30.518Z,6
2023-02-19T15:30:38.865Z,6
2023-02-19T15:31:47.465Z,2.9
2023-02-19T15:32:55.735Z,2.9
2023-02-19T15:34:04.078Z,2.9
2023-02-19T15:35:12.609Z,2.2
2023-02-19T15:36:20.936Z,2.2
2023-02-19T15:37:29.274Z,2.2
2023-02-19T15:38:37.811Z,2.2
2023-02-19T15:39:46.125Z,2.2
2023-02-19T15:40:54.453Z,2.2
2023-02-19T15:42:02.978Z,2.1
2023-02-19T15:43:11.315Z,2.1
2023-02-19T15:44:19.638Z,2.1
2023-02-19T15:45:28.169Z,2.5
2023-02-19T15:46:36.735Z,2.5
2023-02-19T15:47:44.958Z,2.5
2023-02-19T15:48:53.486Z,2
2023-02-19T15:50:01.816Z,2
2023-02-19T15:51:10.525Z,2
2023-02-19T15:52:18.664Z,1.9
2023-02-19T15:53:26.994Z,1.9
2023-02-19T15:54:35.310Z,1.9
2023-02-19T15:55:43.848Z,2
2023-02-19T15:56:52.193Z,2
2023-02-19T15:58:00.483Z,2
2023-02-19T15:59:09.015Z,2
2023-02-19T16:00:17.504Z,2
2023-02-19T16:01:25.806Z,2
2023-02-19T16:02:34.338Z,2.2
2023-02-19T16:03:42.669Z,2.2
2023-02-19T16:04:51.036Z,2.2
2023-02-19T16:05:59.636Z,2.5
2023-02-19T16:07:07.974Z,2.5
2023-02-19T16:08:16.296Z,2.5
2023-02-19T16:09:24.817Z,2.4
2023-02-19T16:10:33.144Z,2.4
2023-02-19T16:11:41.466Z,2.4
2023-02-19T16:12:50.022Z,2.8
2023-02-19T16:13:58.350Z,2.8
2023-02-19T16:15:06.663Z,2.8
2023-02-19T16:16:15.487Z,2.6
2023-02-19T16:17:23.497Z,2.6
2023-02-19T16:18:31.844Z,2.6
2023-02-19T16:19:40.351Z,2.8
2023-02-19T16:20:48.676Z,2.8
2023-02-19T16:21:56.984Z,2.8
2023-02-19T16:23:05.539Z,2.8